sensor_id;sensor_type;location;lat;lon;timestamp;temperature;humidity
21906;DHT22;11117;48.644;9.006;2023-02-19T00:00:04;9.80;99.90
21906;DHT22;11117;48.644;9.006;2023-02-19T00:02:30;9.80;99.90
21906;DHT22;11117;48.644;9.006;2023-02-19T00:04:55;9.80;99.90
21906;DHT22;11117;48.644;9.006;2023-02-19T00:07:20;9.80;99.90
21906;DHT22;11117;48.644;9.006;2023-02-19T00:09:46;9.70;99.90
21906;DHT22;11117;48.644;9.006;2023-02-19T00:12:11;9.70;99.90
21906;DHT22;11117;48.644;9.006;2023-02-19T00:14:37;9.70;99.90
21906;DHT22;11117;48.644;9.006;2023-02-19T00:17:02;9.70;99.90
21906;DHT22;11117;48.644;9.006;2023-02-19T00:19:28;9.70;99.90
21906;DHT22;11117;48.644;9.006;2023-02-19T00:21:53;9.70;99.90
21906;DHT22;11117;48.644;9.006;2023-02-19T00:24:22;9.70;99.90
21906;DHT22;11117;48.644;9.006;2023-02-19T00:26:48;9.80;99.90
21906;DHT22;11117;48.644;9.006;2023-02-19T00:29:19;9.80;99.90
21906;DHT22;11117;48.644;9.006;2023-02-19T00:31:45;9.70;99.90
21906;DHT22;11117;48.644;9.006;2023-02-19T00:34:11;9.70;99.90
21906;DHT22;11117;48.644;9.006;2023-02-19T00:36:39;9.70;99.90
21906;DHT22;11117;48.644;9.006;2023-02-19T00:39:06;9.70;99.90
21906;DHT22;11117;48.644;9.006;2023-02-19T00:41:32;9.60;99.90
21906;DHT22;11117;48.644;9.006;2023-02-19T00:44:03;9.70;99.90
21906;DHT22;11117;48.644;9.006;2023-02-19T00:46:42;9.60;99.90
21906;DHT22;11117;48.644;9.006;2023-02-19T00:49:18;9.60;99.90
21906;DHT22;11117;48.644;9.006;2023-02-19T00:51:45;9.60;99.90
21906;DHT22;11117;48.644;9.006;2023-02-19T00:54:10;9.60;99.90
21906;DHT22;11117;48.644;9.006;2023-02-19T00:56:36;9.60;99.90
21906;DHT22;11117;48.644;9.006;2023-02-19T00:59:01;9.60;99.90
21906;DHT22;11117;48.644;9.006;2023-02-19T01:01:27;9.60;99.90
21906;DHT22;11117;48.644;9.006;2023-02-19T01:03:52;9.60;99.90
21906;DHT22;11117;48.644;9.006;2023-02-19T01:06:19;9.60;99.90
21906;DHT22;11117;48.644;9.006;2023-02-19T01:08:45;9.50;99.90
21906;DHT22;11117;48.644;9.006;2023-02-19T01:11:11;9.50;99.90
21906;DHT22;11117;48.644;9.006;2023-02-19T01:13:38;9.50;99.90
21906;DHT22;11117;48.644;9.006;2023-02-19T01:16:17;9.50;99.90
21906;DHT22;11117;48.644;9.006;2023-02-19T01:18:47;9.50;99.90
21906;DHT22;11117;48.644;9.006;2023-02-19T01:21:15;9.50;99.90
21906;DHT22;11117;48.644;9.006;2023-02-19T01:23:41;9.40;99.90
21906;DHT22;11117;48.644;9.006;2023-02-19T01:26:08;9.50;99.90
21906;DHT22;11117;48.644;9.006;2023-02-19T01:28:35;9.40;99.90
21906;DHT22;11117;48.644;9.006;2023-02-19T01:31:06;9.40;99.90
21906;DHT22;11117;48.644;9.006;2023-02-19T01:33:32;9.40;99.90
21906;DHT22;11117;48.644;9.006;2023-02-19T01:36:01;9.30;99.90
21906;DHT22;11117;48.644;9.006;2023-02-19T01:38:26;9.30;99.90
21906;DHT22;11117;48.644;9.006;2023-02-19T01:40:57;9.30;99.90
21906;DHT22;11117;48.644;9.006;2023-02-19T01:43:23;9.30;99.90
21906;DHT22;11117;48.644;9.006;2023-02-19T01:45:49;9.30;99.90
21906;DHT22;11117;48.644;9.006;2023-02-19T01:48:22;9.30;99.90
21906;DHT22;11117;48.644;9.006;2023-02-19T01:51:13;9.30;99.90
21906;DHT22;11117;48.644;9.006;2023-02-19T01:53:39;9.20;99.90
21906;DHT22;11117;48.644;9.006;2023-02-19T01:56:06;9.10;99.90
21906;DHT22;11117;48.644;9.006;2023-02-19T01:58:34;9.20;99.90
21906;DHT22;11117;48.644;9.006;2023-02-19T02:01:01;9.20;99.90
21906;DHT22;11117;48.644;9.006;2023-02-19T02:03:27;9.20;99.90
21906;DHT22;11117;48.644;9.006;2023-02-19T02:06:01;9.20;99.90
21906;DHT22;11117;48.644;9.006;2023-02-19T02:08:27;9.20;99.90
21906;DHT22;11117;48.644;9.006;2023-02-19T02:10:54;9.10;99.90
21906;DHT22;11117;48.644;9.006;2023-02-19T02:13:20;9.10;99.90
21906;DHT22;11117;48.644;9.006;2023-02-19T02:27:16;9.10;99.90
21906;DHT22;11117;48.644;9.006;2023-02-19T02:30:04;9.10;99.90
21906;DHT22;11117;48.644;9.006;2023-02-19T02:32:44;9.10;99.90
21906;DHT22;11117;48.644;9.006;2023-02-19T02:35:14;9.10;99.90
21906;DHT22;11117;48.644;9.006;2023-02-19T02:37:41;9.10;99.90
21906;DHT22;11117;48.644;9.006;2023-02-19T02:40:09;9.10;99.90
21906;DHT22;11117;48.644;9.006;2023-02-19T02:42:38;9.00;99.90
21906;DHT22;11117;48.644;9.006;2023-02-19T02:45:28;9.10;99.90
21906;DHT22;11117;48.644;9.006;2023-02-19T02:47:55;9.10;99.90
21906;DHT22;11117;48.644;9.006;2023-02-19T02:50:24;9.10;99.90
21906;DHT22;11117;48.644;9.006;2023-02-19T02:52:55;9.00;99.90
21906;DHT22;11117;48.644;9.006;2023-02-19T02:55:23;9.00;99.90
21906;DHT22;11117;48.644;9.006;2023-02-19T02:57:49;9.00;99.90
21906;DHT22;11117;48.644;9.006;2023-02-19T03:00:17;9.10;99.90
21906;DHT22;11117;48.644;9.006;2023-02-19T03:02:45;9.10;99.90
21906;DHT22;11117;48.644;9.006;2023-02-19T03:05:21;9.00;99.90
21906;DHT22;11117;48.644;9.006;2023-02-19T03:07:54;9.00;99.90
21906;DHT22;11117;48.644;9.006;2023-02-19T03:13:31;9.10;99.90
21906;DHT22;11117;48.644;9.006;2023-02-19T03:19:00;9.10;99.90
21906;DHT22;11117;48.644;9.006;2023-02-19T03:21:28;9.00;99.90
21906;DHT22;11117;48.644;9.006;2023-02-19T03:23:55;9.00;99.90
21906;DHT22;11117;48.644;9.006;2023-02-19T03:26:21;9.00;99.90
21906;DHT22;11117;48.644;9.006;2023-02-19T03:28:49;8.90;99.90
21906;DHT22;11117;48.644;9.006;2023-02-19T03:31:20;8.90;99.90
21906;DHT22;11117;48.644;9.006;2023-02-19T03:33:49;8.90;99.90
21906;DHT22;11117;48.644;9.006;2023-02-19T03:36:16;8.80;99.90
21906;DHT22;11117;48.644;9.006;2023-02-19T03:38:56;8.80;99.90
21906;DHT22;11117;48.644;9.006;2023-02-19T03:44:12;8.70;99.90
21906;DHT22;11117;48.644;9.006;2023-02-19T03:52:40;8.60;99.90
21906;DHT22;11117;48.644;9.006;2023-02-19T03:55:30;8.70;99.90
21906;DHT22;11117;48.644;9.006;2023-02-19T03:58:10;8.70;99.90
21906;DHT22;11117;48.644;9.006;2023-02-19T04:01:25;8.70;99.90
21906;DHT22;11117;48.644;9.006;2023-02-19T04:03:50;8.70;99.90
21906;DHT22;11117;48.644;9.006;2023-02-19T04:06:27;8.70;99.90
21906;DHT22;11117;48.644;9.006;2023-02-19T04:08:57;8.60;99.90
21906;DHT22;11117;48.644;9.006;2023-02-19T04:11:24;8.60;99.90
21906;DHT22;11117;48.644;9.006;2023-02-19T04:13:57;8.60;99.90
21906;DHT22;11117;48.644;9.006;2023-02-19T04:16:29;8.60;99.90
21906;DHT22;11117;48.644;9.006;2023-02-19T04:19:00;8.60;99.90
21906;DHT22;11117;48.644;9.006;2023-02-19T04:21:29;8.60;99.90
21906;DHT22;11117;48.644;9.006;2023-02-19T04:23:58;8.50;99.90
21906;DHT22;11117;48.644;9.006;2023-02-19T04:26:25;8.50;99.90
21906;DHT22;11117;48.644;9.006;2023-02-19T04:28:50;8.50;99.90
21906;DHT22;11117;48.644;9.006;2023-02-19T04:31:16;8.60;99.90
21906;DHT22;11117;48.644;9.006;2023-02-19T04:33:41;8.50;99.90
21906;DHT22;11117;48.644;9.006;2023-02-19T04:36:09;8.60;99.90
21906;DHT22;11117;48.644;9.006;2023-02-19T04:38:35;8.50;99.90
21906;DHT22;11117;48.644;9.006;2023-02-19T04:41:00;8.50;99.90
21906;DHT22;11117;48.644;9.006;2023-02-19T04:43:26;8.50;99.90
21906;DHT22;11117;48.644;9.006;2023-02-19T04:45:51;8.50;99.90
21906;DHT22;11117;48.644;9.006;2023-02-19T04:48:17;8.50;99.90
21906;DHT22;11117;48.644;9.006;2023-02-19T04:50:42;8.50;99.90
21906;DHT22;11117;48.644;9.006;2023-02-19T04:53:08;8.50;99.90
21906;DHT22;11117;48.644;9.006;2023-02-19T04:55:37;8.50;99.90
21906;DHT22;11117;48.644;9.006;2023-02-19T04:58:03;8.50;99.90
21906;DHT22;11117;48.644;9.006;2023-02-19T05:00:29;8.50;99.90
21906;DHT22;11117;48.644;9.006;2023-02-19T05:02:55;8.60;99.90
21906;DHT22;11117;48.644;9.006;2023-02-19T05:05:20;8.50;99.90
21906;DHT22;11117;48.644;9.006;2023-02-19T05:07:46;8.60;99.90
21906;DHT22;11117;48.644;9.006;2023-02-19T05:10:11;8.50;99.90
21906;DHT22;11117;48.644;9.006;2023-02-19T05:12:37;8.50;99.90
21906;DHT22;11117;48.644;9.006;2023-02-19T05:15:02;8.50;99.90
21906;DHT22;11117;48.644;9.006;2023-02-19T05:17:28;8.50;99.90
21906;DHT22;11117;48.644;9.006;2023-02-19T05:19:53;8.50;99.90
21906;DHT22;11117;48.644;9.006;2023-02-19T05:22:19;8.60;99.90
21906;DHT22;11117;48.644;9.006;2023-02-19T05:24:45;8.60;99.90
21906;DHT22;11117;48.644;9.006;2023-02-19T05:27:10;8.60;99.90
21906;DHT22;11117;48.644;9.006;2023-02-19T05:29:39;8.60;99.90
21906;DHT22;11117;48.644;9.006;2023-02-19T05:32:04;8.60;99.90
21906;DHT22;11117;48.644;9.006;2023-02-19T05:34:30;8.50;99.90
21906;DHT22;11117;48.644;9.006;2023-02-19T05:36:55;8.60;99.90
21906;DHT22;11117;48.644;9.006;2023-02-19T05:39:21;8.60;99.90
21906;DHT22;11117;48.644;9.006;2023-02-19T05:41:46;8.60;99.90
21906;DHT22;11117;48.644;9.006;2023-02-19T05:44:12;8.60;99.90
21906;DHT22;11117;48.644;9.006;2023-02-19T05:46:37;8.60;99.90
21906;DHT22;11117;48.644;9.006;2023-02-19T05:49:06;8.60;99.90
21906;DHT22;11117;48.644;9.006;2023-02-19T05:51:31;8.60;99.90
21906;DHT22;11117;48.644;9.006;2023-02-19T05:53:57;8.50;99.90
21906;DHT22;11117;48.644;9.006;2023-02-19T05:56:35;8.50;99.90
21906;DHT22;11117;48.644;9.006;2023-02-19T05:59:04;8.50;99.90
21906;DHT22;11117;48.644;9.006;2023-02-19T06:01:30;8.50;99.90
21906;DHT22;11117;48.644;9.006;2023-02-19T06:03:56;8.50;99.90
21906;DHT22;11117;48.644;9.006;2023-02-19T06:06:22;8.50;99.90
21906;DHT22;11117;48.644;9.006;2023-02-19T06:08:48;8.50;99.90
21906;DHT22;11117;48.644;9.006;2023-02-19T06:11:17;8.40;99.90
21906;DHT22;11117;48.644;9.006;2023-02-19T06:13:42;8.40;99.90
21906;DHT22;11117;48.644;9.006;2023-02-19T06:16:11;8.40;99.90
21906;DHT22;11117;48.644;9.006;2023-02-19T06:18:36;8.50;99.90
21906;DHT22;11117;48.644;9.006;2023-02-19T06:21:07;8.50;99.90
21906;DHT22;11117;48.644;9.006;2023-02-19T06:23:33;8.50;99.90
21906;DHT22;11117;48.644;9.006;2023-02-19T06:26:25;8.50;99.90
21906;DHT22;11117;48.644;9.006;2023-02-19T06:28:52;8.50;99.90
21906;DHT22;11117;48.644;9.006;2023-02-19T06:31:19;8.40;99.90
21906;DHT22;11117;48.644;9.006;2023-02-19T06:33:45;8.30;99.90
21906;DHT22;11117;48.644;9.006;2023-02-19T06:36:13;8.30;99.90
21906;DHT22;11117;48.644;9.006;2023-02-19T06:38:39;8.30;99.90
21906;DHT22;11117;48.644;9.006;2023-02-19T06:41:05;8.30;99.90
21906;DHT22;11117;48.644;9.006;2023-02-19T06:43:32;8.30;99.90
21906;DHT22;11117;48.644;9.006;2023-02-19T06:45:58;8.30;99.90
21906;DHT22;11117;48.644;9.006;2023-02-19T06:48:28;8.30;99.90
21906;DHT22;11117;48.644;9.006;2023-02-19T06:50:53;8.30;99.90
21906;DHT22;11117;48.644;9.006;2023-02-19T06:53:19;8.30;99.90
21906;DHT22;11117;48.644;9.006;2023-02-19T06:55:55;8.20;99.90
21906;DHT22;11117;48.644;9.006;2023-02-19T06:58:20;8.20;99.90
21906;DHT22;11117;48.644;9.006;2023-02-19T07:00:46;8.20;99.90
21906;DHT22;11117;48.644;9.006;2023-02-19T07:03:11;8.20;99.90
21906;DHT22;11117;48.644;9.006;2023-02-19T07:05:37;8.20;99.90
21906;DHT22;11117;48.644;9.006;2023-02-19T07:08:02;8.20;99.90
21906;DHT22;11117;48.644;9.006;2023-02-19T07:10:28;8.20;99.90
21906;DHT22;11117;48.644;9.006;2023-02-19T07:12:53;8.30;99.90
21906;DHT22;11117;48.644;9.006;2023-02-19T07:15:19;8.30;99.90
21906;DHT22;11117;48.644;9.006;2023-02-19T07:17:44;8.30;99.90
21906;DHT22;11117;48.644;9.006;2023-02-19T07:20:10;8.40;99.90
21906;DHT22;11117;48.644;9.006;2023-02-19T07:22:36;8.40;99.90
21906;DHT22;11117;48.644;9.006;2023-02-19T07:25:01;8.30;99.90
21906;DHT22;11117;48.644;9.006;2023-02-19T07:27:27;8.30;99.90
21906;DHT22;11117;48.644;9.006;2023-02-19T07:29:52;8.30;99.90
21906;DHT22;11117;48.644;9.006;2023-02-19T07:32:18;8.30;99.90
21906;DHT22;11117;48.644;9.006;2023-02-19T07:34:43;8.30;99.90
21906;DHT22;11117;48.644;9.006;2023-02-19T07:37:09;8.30;99.90
21906;DHT22;11117;48.644;9.006;2023-02-19T07:39:34;8.40;99.90
21906;DHT22;11117;48.644;9.006;2023-02-19T07:42:00;8.30;99.90
21906;DHT22;11117;48.644;9.006;2023-02-19T07:44:26;8.30;99.90
21906;DHT22;11117;48.644;9.006;2023-02-19T07:46:51;8.30;99.90
21906;DHT22;11117;48.644;9.006;2023-02-19T07:49:17;8.30;99.90
21906;DHT22;11117;48.644;9.006;2023-02-19T07:51:42;8.30;99.90
21906;DHT22;11117;48.644;9.006;2023-02-19T07:54:08;8.30;99.90
21906;DHT22;11117;48.644;9.006;2023-02-19T07:56:33;8.40;99.90
21906;DHT22;11117;48.644;9.006;2023-02-19T07:58:59;8.30;99.90
21906;DHT22;11117;48.644;9.006;2023-02-19T08:01:25;8.30;99.90
21906;DHT22;11117;48.644;9.006;2023-02-19T08:03:50;8.30;99.90
21906;DHT22;11117;48.644;9.006;2023-02-19T08:06:16;8.30;99.90
21906;DHT22;11117;48.644;9.006;2023-02-19T08:08:41;8.50;99.90
21906;DHT22;11117;48.644;9.006;2023-02-19T08:11:08;8.50;99.90
21906;DHT22;11117;48.644;9.006;2023-02-19T08:13:41;8.40;99.90
21906;DHT22;11117;48.644;9.006;2023-02-19T08:16:10;8.30;99.90
21906;DHT22;11117;48.644;9.006;2023-02-19T08:18:36;8.30;99.90
21906;DHT22;11117;48.644;9.006;2023-02-19T08:21:01;8.30;99.90
21906;DHT22;11117;48.644;9.006;2023-02-19T08:23:27;8.20;99.90
21906;DHT22;11117;48.644;9.006;2023-02-19T08:25:56;8.30;99.90
21906;DHT22;11117;48.644;9.006;2023-02-19T08:28:22;8.20;99.90
21906;DHT22;11117;48.644;9.006;2023-02-19T08:30:48;8.20;99.90
21906;DHT22;11117;48.644;9.006;2023-02-19T08:33:16;8.30;99.90
21906;DHT22;11117;48.644;9.006;2023-02-19T08:35:42;8.30;99.90
21906;DHT22;11117;48.644;9.006;2023-02-19T08:38:12;8.20;99.90
21906;DHT22;11117;48.644;9.006;2023-02-19T08:40:39;8.20;99.90
21906;DHT22;11117;48.644;9.006;2023-02-19T08:43:07;8.40;99.90
21906;DHT22;11117;48.644;9.006;2023-02-19T08:45:35;8.40;99.90
21906;DHT22;11117;48.644;9.006;2023-02-19T08:48:01;8.50;99.90
21906;DHT22;11117;48.644;9.006;2023-02-19T08:50:26;8.50;99.90
21906;DHT22;11117;48.644;9.006;2023-02-19T08:52:52;8.60;99.90
21906;DHT22;11117;48.644;9.006;2023-02-19T08:55:17;8.60;99.90
21906;DHT22;11117;48.644;9.006;2023-02-19T08:57:43;8.80;99.90
21906;DHT22;11117;48.644;9.006;2023-02-19T09:00:09;8.80;99.90
21906;DHT22;11117;48.644;9.006;2023-02-19T09:02:35;8.80;99.90
21906;DHT22;11117;48.644;9.006;2023-02-19T09:05:01;8.80;99.90
21906;DHT22;11117;48.644;9.006;2023-02-19T09:07:27;8.90;99.90
21906;DHT22;11117;48.644;9.006;2023-02-19T09:09:52;8.90;99.90
21906;DHT22;11117;48.644;9.006;2023-02-19T09:12:18;8.90;99.90
21906;DHT22;11117;48.644;9.006;2023-02-19T09:14:44;8.90;99.90
21906;DHT22;11117;48.644;9.006;2023-02-19T09:17:09;8.80;99.90
21906;DHT22;11117;48.644;9.006;2023-02-19T09:19:35;8.70;99.90
21906;DHT22;11117;48.644;9.006;2023-02-19T09:22:02;8.70;99.90
21906;DHT22;11117;48.644;9.006;2023-02-19T09:24:28;8.70;99.90
21906;DHT22;11117;48.644;9.006;2023-02-19T09:26:54;8.70;99.90
21906;DHT22;11117;48.644;9.006;2023-02-19T09:29:21;8.70;99.90
21906;DHT22;11117;48.644;9.006;2023-02-19T09:31:48;8.70;99.90
21906;DHT22;11117;48.644;9.006;2023-02-19T09:34:14;8.70;99.90
21906;DHT22;11117;48.644;9.006;2023-02-19T09:36:39;8.80;99.90
21906;DHT22;11117;48.644;9.006;2023-02-19T09:39:06;8.80;99.90
21906;DHT22;11117;48.644;9.006;2023-02-19T09:41:43;8.80;99.90
21906;DHT22;11117;48.644;9.006;2023-02-19T09:44:12;8.90;99.90
21906;DHT22;11117;48.644;9.006;2023-02-19T09:46:43;8.70;99.90
21906;DHT22;11117;48.644;9.006;2023-02-19T09:49:17;8.60;99.90
21906;DHT22;11117;48.644;9.006;2023-02-19T09:51:49;8.60;99.90
21906;DHT22;11117;48.644;9.006;2023-02-19T09:54:23;8.50;99.90
21906;DHT22;11117;48.644;9.006;2023-02-19T09:56:49;8.60;99.90
21906;DHT22;11117;48.644;9.006;2023-02-19T09:59:39;8.60;99.90
21906;DHT22;11117;48.644;9.006;2023-02-19T10:02:17;8.90;99.90
21906;DHT22;11117;48.644;9.006;2023-02-19T10:04:46;8.80;99.90
21906;DHT22;11117;48.644;9.006;2023-02-19T10:09:38;8.80;99.90
21906;DHT22;11117;48.644;9.006;2023-02-19T10:12:15;8.80;99.90
21906;DHT22;11117;48.644;9.006;2023-02-19T10:14:44;8.80;99.90
21906;DHT22;11117;48.644;9.006;2023-02-19T10:17:23;8.80;99.90
21906;DHT22;11117;48.644;9.006;2023-02-19T10:19:50;8.90;99.90
21906;DHT22;11117;48.644;9.006;2023-02-19T10:22:16;8.90;99.90
21906;DHT22;11117;48.644;9.006;2023-02-19T10:24:48;8.90;99.90
21906;DHT22;11117;48.644;9.006;2023-02-19T10:27:14;8.90;99.90
21906;DHT22;11117;48.644;9.006;2023-02-19T10:29:44;8.80;99.90
21906;DHT22;11117;48.644;9.006;2023-02-19T10:32:15;8.80;99.90
21906;DHT22;11117;48.644;9.006;2023-02-19T10:34:40;8.90;99.90
21906;DHT22;11117;48.644;9.006;2023-02-19T10:37:14;8.90;99.90
21906;DHT22;11117;48.644;9.006;2023-02-19T10:39:48;8.70;99.90
21906;DHT22;11117;48.644;9.006;2023-02-19T10:42:23;8.70;99.90
21906;DHT22;11117;48.644;9.006;2023-02-19T10:44:55;8.80;99.90
21906;DHT22;11117;48.644;9.006;2023-02-19T10:47:24;8.80;99.90
21906;DHT22;11117;48.644;9.006;2023-02-19T10:49:51;8.90;99.90
21906;DHT22;11117;48.644;9.006;2023-02-19T10:52:24;9.00;99.90
21906;DHT22;11117;48.644;9.006;2023-02-19T10:57:48;9.10;99.90
21906;DHT22;11117;48.644;9.006;2023-02-19T11:00:26;9.30;99.90
21906;DHT22;11117;48.644;9.006;2023-02-19T11:03:12;9.20;99.90
21906;DHT22;11117;48.644;9.006;2023-02-19T11:05:38;9.30;99.90
21906;DHT22;11117;48.644;9.006;2023-02-19T11:08:23;9.30;99.90
21906;DHT22;11117;48.644;9.006;2023-02-19T11:10:48;9.50;99.90
21906;DHT22;11117;48.644;9.006;2023-02-19T11:13:22;9.50;99.90
21906;DHT22;11117;48.644;9.006;2023-02-19T11:15:52;9.60;99.90
21906;DHT22;11117;48.644;9.006;2023-02-19T11:18:25;9.50;99.90
21906;DHT22;11117;48.644;9.006;2023-02-19T11:20:56;9.60;99.90
21906;DHT22;11117;48.644;9.006;2023-02-19T11:23:36;9.70;99.90
21906;DHT22;11117;48.644;9.006;2023-02-19T11:26:17;9.70;99.90
21906;DHT22;11117;48.644;9.006;2023-02-19T11:28:43;9.80;99.90
21906;DHT22;11117;48.644;9.006;2023-02-19T11:33:55;9.80;99.90
21906;DHT22;11117;48.644;9.006;2023-02-19T11:36:33;9.80;99.90
21906;DHT22;11117;48.644;9.006;2023-02-19T11:41:52;9.80;99.90
21906;DHT22;11117;48.644;9.006;2023-02-19T11:50:35;9.60;99.90
21906;DHT22;11117;48.644;9.006;2023-02-19T11:53:28;9.40;99.90
21906;DHT22;11117;48.644;9.006;2023-02-19T12:06:48;9.70;99.90
21906;DHT22;11117;48.644;9.006;2023-02-19T12:12:03;9.50;99.90
21906;DHT22;11117;48.644;9.006;2023-02-19T12:20:32;10.00;99.90
21906;DHT22;11117;48.644;9.006;2023-02-19T12:23:47;10.00;99.90
21906;DHT22;11117;48.644;9.006;2023-02-19T12:26:26;10.00;99.90
21906;DHT22;11117;48.644;9.006;2023-02-19T12:43:18;10.20;99.90
21906;DHT22;11117;48.644;9.006;2023-02-19T12:53:44;10.00;99.90
21906;DHT22;11117;48.644;9.006;2023-02-19T12:56:21;10.10;99.90
21906;DHT22;11117;48.644;9.006;2023-02-19T12:58:51;10.10;99.90
21906;DHT22;11117;48.644;9.006;2023-02-19T13:01:22;10.10;99.90
21906;DHT22;11117;48.644;9.006;2023-02-19T13:06:34;10.20;99.90
21906;DHT22;11117;48.644;9.006;2023-02-19T13:09:24;10.40;99.90
21906;DHT22;11117;48.644;9.006;2023-02-19T13:12:07;10.40;99.90
21906;DHT22;11117;48.644;9.006;2023-02-19T13:14:49;10.40;99.90
21906;DHT22;11117;48.644;9.006;2023-02-19T13:20:03;10.90;99.90
21906;DHT22;11117;48.644;9.006;2023-02-19T13:23:05;10.70;99.90
21906;DHT22;11117;48.644;9.006;2023-02-19T13:37:09;10.50;99.90
21906;DHT22;11117;48.644;9.006;2023-02-19T13:39:46;10.60;99.90
21906;DHT22;11117;48.644;9.006;2023-02-19T13:42:26;10.50;99.90
21906;DHT22;11117;48.644;9.006;2023-02-19T13:44:53;10.30;99.90
21906;DHT22;11117;48.644;9.006;2023-02-19T13:50:18;10.20;99.90
21906;DHT22;11117;48.644;9.006;2023-02-19T13:52:46;10.20;99.90
21906;DHT22;11117;48.644;9.006;2023-02-19T14:00:57;10.20;99.90
21906;DHT22;11117;48.644;9.006;2023-02-19T14:03:53;10.10;99.90
21906;DHT22;11117;48.644;9.006;2023-02-19T14:06:19;9.90;99.90
21906;DHT22;11117;48.644;9.006;2023-02-19T14:08:54;9.90;99.90
21906;DHT22;11117;48.644;9.006;2023-02-19T14:27:58;9.60;99.90
21906;DHT22;11117;48.644;9.006;2023-02-19T14:30:26;9.60;99.90
21906;DHT22;11117;48.644;9.006;2023-02-19T14:32:52;9.70;99.90
21906;DHT22;11117;48.644;9.006;2023-02-19T14:35:27;9.50;99.90
21906;DHT22;11117;48.644;9.006;2023-02-19T14:37:55;9.50;99.90
21906;DHT22;11117;48.644;9.006;2023-02-19T14:40:34;9.50;99.90
21906;DHT22;11117;48.644;9.006;2023-02-19T14:43:01;9.50;99.90
21906;DHT22;11117;48.644;9.006;2023-02-19T14:45:28;9.40;99.90
21906;DHT22;11117;48.644;9.006;2023-02-19T14:47:55;9.40;99.90
21906;DHT22;11117;48.644;9.006;2023-02-19T14:50:31;9.60;99.90
21906;DHT22;11117;48.644;9.006;2023-02-19T14:53:00;9.40;99.90
21906;DHT22;11117;48.644;9.006;2023-02-19T14:55:31;9.50;99.90
21906;DHT22;11117;48.644;9.006;2023-02-19T14:57:59;9.40;99.90
21906;DHT22;11117;48.644;9.006;2023-02-19T15:00:28;9.30;99.90
21906;DHT22;11117;48.644;9.006;2023-02-19T15:02:55;9.40;99.90
21906;DHT22;11117;48.644;9.006;2023-02-19T15:05:25;9.20;99.90
21906;DHT22;11117;48.644;9.006;2023-02-19T15:07:57;9.30;99.90
21906;DHT22;11117;48.644;9.006;2023-02-19T15:10:25;9.20;99.90
21906;DHT22;11117;48.644;9.006;2023-02-19T15:12:55;9.10;99.90
21906;DHT22;11117;48.644;9.006;2023-02-19T15:15:33;9.10;99.90
21906;DHT22;11117;48.644;9.006;2023-02-19T15:18:00;9.00;99.90
21906;DHT22;11117;48.644;9.006;2023-02-19T15:20:33;9.10;99.90
21906;DHT22;11117;48.644;9.006;2023-02-19T15:23:00;9.10;99.90
21906;DHT22;11117;48.644;9.006;2023-02-19T15:25:37;8.90;99.90
21906;DHT22;11117;48.644;9.006;2023-02-19T15:28:32;9.10;99.90
21906;DHT22;11117;48.644;9.006;2023-02-19T15:33:25;8.80;99.90
21906;DHT22;11117;48.644;9.006;2023-02-19T15:35:56;8.90;99.90
21906;DHT22;11117;48.644;9.006;2023-02-19T15:38:23;8.70;99.90
21906;DHT22;11117;48.644;9.006;2023-02-19T15:40:49;8.70;99.90
21906;DHT22;11117;48.644;9.006;2023-02-19T15:43:23;8.70;99.90
21906;DHT22;11117;48.644;9.006;2023-02-19T15:45:51;8.70;99.90
21906;DHT22;11117;48.644;9.006;2023-02-19T15:48:26;8.60;99.90
21906;DHT22;11117;48.644;9.006;2023-02-19T15:51:04;8.70;99.90
21906;DHT22;11117;48.644;9.006;2023-02-19T15:53:30;8.70;99.90
21906;DHT22;11117;48.644;9.006;2023-02-19T15:56:01;8.70;99.90
21906;DHT22;11117;48.644;9.006;2023-02-19T15:58:41;8.70;99.90
21906;DHT22;11117;48.644;9.006;2023-02-19T16:01:29;8.70;99.90
21906;DHT22;11117;48.644;9.006;2023-02-19T16:03:55;8.60;99.90
21906;DHT22;11117;48.644;9.006;2023-02-19T16:06:23;8.50;99.90
21906;DHT22;11117;48.644;9.006;2023-02-19T16:09:03;8.50;99.90
21906;DHT22;11117;48.644;9.006;2023-02-19T16:11:35;8.40;99.90
21906;DHT22;11117;48.644;9.006;2023-02-19T16:14:23;8.30;99.90
21906;DHT22;11117;48.644;9.006;2023-02-19T16:16:52;8.20;99.90
21906;DHT22;11117;48.644;9.006;2023-02-19T16:19:27;8.20;99.90
21906;DHT22;11117;48.644;9.006;2023-02-19T16:21:53;8.20;99.90
21906;DHT22;11117;48.644;9.006;2023-02-19T16:24:31;8.10;99.90
21906;DHT22;11117;48.644;9.006;2023-02-19T16:26:59;8.00;99.90
21906;DHT22;11117;48.644;9.006;2023-02-19T16:29:30;8.00;99.90
21906;DHT22;11117;48.644;9.006;2023-02-19T16:31:59;8.00;99.90
21906;DHT22;11117;48.644;9.006;2023-02-19T16:34:43;7.90;99.90
21906;DHT22;11117;48.644;9.006;2023-02-19T16:42:35;7.90;99.90
21906;DHT22;11117;48.644;9.006;2023-02-19T16:45:01;7.90;99.90
21906;DHT22;11117;48.644;9.006;2023-02-19T16:47:29;7.90;99.90
21906;DHT22;11117;48.644;9.006;2023-02-19T16:49:58;7.80;99.90
21906;DHT22;11117;48.644;9.006;2023-02-19T16:52:24;7.80;99.90
21906;DHT22;11117;48.644;9.006;2023-02-19T16:54:50;7.70;99.90
21906;DHT22;11117;48.644;9.006;2023-02-19T16:57:15;7.80;99.90
21906;DHT22;11117;48.644;9.006;2023-02-19T16:59:41;7.80;99.90
21906;DHT22;11117;48.644;9.006;2023-02-19T17:02:08;7.80;99.90
21906;DHT22;11117;48.644;9.006;2023-02-19T17:04:34;7.80;99.90
21906;DHT22;11117;48.644;9.006;2023-02-19T17:07:01;7.90;99.90
21906;DHT22;11117;48.644;9.006;2023-02-19T17:09:26;7.90;99.90
21906;DHT22;11117;48.644;9.006;2023-02-19T17:11:52;8.00;99.90
21906;DHT22;11117;48.644;9.006;2023-02-19T17:14:17;8.10;99.90
21906;DHT22;11117;48.644;9.006;2023-02-19T17:16:43;8.10;99.90
21906;DHT22;11117;48.644;9.006;2023-02-19T17:19:14;8.00;99.90
21906;DHT22;11117;48.644;9.006;2023-02-19T17:21:40;7.90;99.90
21906;DHT22;11117;48.644;9.006;2023-02-19T17:24:05;7.80;99.90
21906;DHT22;11117;48.644;9.006;2023-02-19T17:26:31;7.70;99.90
21906;DHT22;11117;48.644;9.006;2023-02-19T17:29:02;7.60;99.90
21906;DHT22;11117;48.644;9.006;2023-02-19T17:31:28;7.60;99.90
21906;DHT22;11117;48.644;9.006;2023-02-19T17:33:54;7.50;99.90
21906;DHT22;11117;48.644;9.006;2023-02-19T17:36:22;7.50;99.90
21906;DHT22;11117;48.644;9.006;2023-02-19T17:38:48;7.50;99.90
21906;DHT22;11117;48.644;9.006;2023-02-19T17:41:14;7.50;99.90
21906;DHT22;11117;48.644;9.006;2023-02-19T17:43:39;7.50;99.90
21906;DHT22;11117;48.644;9.006;2023-02-19T17:46:05;7.50;99.90
21906;DHT22;11117;48.644;9.006;2023-02-19T17:48:30;7.40;99.90
21906;DHT22;11117;48.644;9.006;2023-02-19T17:50:56;7.40;99.90
21906;DHT22;11117;48.644;9.006;2023-02-19T17:53:21;7.40;99.90
21906;DHT22;11117;48.644;9.006;2023-02-19T17:55:47;7.40;99.90
21906;DHT22;11117;48.644;9.006;2023-02-19T17:58:13;7.40;99.90
21906;DHT22;11117;48.644;9.006;2023-02-19T18:00:39;7.40;99.90
21906;DHT22;11117;48.644;9.006;2023-02-19T18:03:04;7.50;99.90
21906;DHT22;11117;48.644;9.006;2023-02-19T18:05:30;7.60;99.90
21906;DHT22;11117;48.644;9.006;2023-02-19T18:07:55;7.50;99.90
21906;DHT22;11117;48.644;9.006;2023-02-19T18:10:22;7.50;99.90
21906;DHT22;11117;48.644;9.006;2023-02-19T18:12:47;7.50;99.90